Time;durP1;ratioP1;P1;durP2;ratioP2;P2;SDS_P1;SDS_P2;PMS_P1;PMS_P2;Temp;Humidity;BMP_temperature;BMP_pressure;BME280_temperature;BME280_humidity;BME280_pressure;Samples;Min_cycle;Max_cycle;Signal;HPM_P1;HPM_P2
2021/08/24 00:00:48;;;;;;;8.15;5.97;;;538.10;2099.20;;;;;;5094129;28;20050;-75
2021/08/24 00:03:14;;;;;;;7.45;5.07;;;538.20;2099.20;;;;;;5095270;28;20095;-74
2021/08/24 00:05:40;;;;;;;20.65;5.80;;;538.20;2099.20;;;;;;5095398;28;20059;-75
2021/08/24 00:08:07;;;;;;;11.38;5.15;;;538.30;2099.20;;;;;;5095244;28;20016;-73
2021/08/24 00:10:37;;;;;;;8.23;4.78;;;538.10;2124.80;;;;;;5095134;28;20366;-74
2021/08/24 00:13:04;;;;;;;7.68;3.92;;;538.10;2099.20;;;;;;5095132;28;20012;-73
2021/08/24 00:15:30;;;;;;;6.65;3.80;;;538.20;2099.20;;;;;;5093574;28;20051;-74
2021/08/24 00:17:58;;;;;;;8.60;3.72;;;537.90;2099.20;;;;;;5095036;28;20017;-73
2021/08/24 00:20:30;;;;;;;5.45;3.45;;;537.90;2099.20;;;;;;5094977;28;20028;-74
2021/08/24 00:22:56;;;;;;;4.07;2.45;;;538.00;2073.60;;;;;;5095016;28;20491;-73
2021/08/24 00:25:22;;;;;;;4.97;2.25;;;538.10;2048.00;;;;;;5094898;28;20049;-74
2021/08/24 00:27:48;;;;;;;4.50;1.60;;;538.00;2022.40;;;;;;5095060;28;20463;-73
2021/08/24 00:30:14;;;;;;;3.10;1.55;;;537.80;2048.00;;;;;;5094519;28;20032;-74
2021/08/24 00:32:40;;;;;;;3.60;1.65;;;537.80;2022.40;;;;;;5094819;28;20024;-73
2021/08/24 00:35:06;;;;;;;3.63;1.63;;;537.80;2022.40;;;;;;5094683;28;20020;-73
2021/08/24 00:37:33;;;;;;;2.22;1.35;;;537.90;2022.40;;;;;;5094671;28;20024;-75
2021/08/24 00:39:58;;;;;;;2.97;1.45;;;538.00;2022.40;;;;;;5094638;28;20054;-72
2021/08/24 00:42:24;;;;;;;3.53;1.50;;;538.00;1996.80;;;;;;5093267;28;20417;-72
2021/08/24 00:44:51;;;;;;;4.55;1.58;;;538.10;1996.80;;;;;;5094532;28;20047;-72
2021/08/24 00:47:21;;;;;;;4.55;1.65;;;538.00;2022.40;;;;;;5094476;28;20016;-72
2021/08/24 00:49:48;;;;;;;3.83;1.58;;;538.10;1996.80;;;;;;5094370;28;20029;-72
2021/08/24 00:52:22;;;;;;;3.47;1.67;;;538.10;1996.80;;;;;;5094367;28;20444;-72
2021/08/24 00:54:48;;;;;;;3.13;1.95;;;538.10;2022.40;;;;;;5094597;28;20016;-72
2021/08/24 00:57:21;;;;;;;3.80;1.90;;;538.10;1996.80;;;;;;5094326;28;20036;-72
2021/08/24 00:59:49;;;;;;;3.95;2.05;;;538.20;1996.80;;;;;;5094582;28;20077;-72
2021/08/24 01:02:18;;;;;;;4.43;2.13;;;538.20;1996.80;;;;;;5094211;28;20032;-72
2021/08/24 01:04:45;;;;;;;3.78;1.98;;;538.10;2022.40;;;;;;5092941;28;20488;-73
2021/08/24 01:07:37;;;;;;;2.95;2.10;;;538.00;2022.40;;;;;;5092864;28;20028;-74
2021/08/24 01:10:14;;;;;;;5.38;2.17;;;538.00;2048.00;;;;;;5064988;28;20157;-74
2021/08/24 01:12:55;;;;;;;6.47;2.35;;;538.10;2022.40;;;;;;5094691;28;20468;-74
2021/08/24 01:15:40;;;;;;;5.03;2.88;;;538.00;2048.00;;;;;;5093860;28;20105;-73
2021/08/24 01:18:29;;;;;;;4.97;2.65;;;538.10;2022.40;;;;;;5093932;28;20024;-74
2021/08/24 01:21:29;;;;;;;7.15;3.22;;;538.10;2048.00;;;;;;5093984;28;20024;-74
2021/08/24 01:24:07;;;;;;;6.97;2.95;;;538.00;2073.60;;;;;;5093919;28;20107;-72
2021/08/24 01:26:44;;;;;;;6.93;3.38;;;538.00;2073.60;;;;;;5092660;28;20384;-73
2021/08/24 01:29:27;;;;;;;4.85;3.35;;;538.00;2073.60;;;;;;5094149;28;20028;-73
2021/08/24 01:32:12;;;;;;;3.63;2.97;;;538.00;2048.00;;;;;;5093706;28;20035;-73
2021/08/24 01:35:13;;;;;;;3.72;2.63;;;537.80;2073.60;;;;;;5092460;28;20388;-73
2021/08/24 01:37:52;;;;;;;4.82;3.38;;;537.70;2073.60;;;;;;5093947;28;20217;-73
2021/08/24 01:40:28;;;;;;;3.45;2.70;;;537.90;2048.00;;;;;;5092094;28;20053;-73
2021/08/24 01:42:56;;;;;;;5.53;2.53;;;537.90;2048.00;;;;;;5092062;28;20024;-73
2021/08/24 01:45:47;;;;;;;2.92;2.38;;;537.90;2048.00;;;;;;5093653;28;20046;-73
2021/08/24 01:48:33;;;;;;;3.38;2.42;;;538.00;2022.40;;;;;;5093535;28;20028;-74
2021/08/24 01:51:15;;;;;;;3.22;2.42;;;538.00;2022.40;;;;;;5091619;28;20092;-74
2021/08/24 01:53:51;;;;;;;4.97;2.80;;;538.00;2022.40;;;;;;5093580;28;20023;-73
2021/08/24 01:56:23;;;;;;;3.92;3.03;;;538.00;2048.00;;;;;;5093553;28;20024;-73
2021/08/24 01:59:10;;;;;;;2.63;2.30;;;538.10;2022.40;;;;;;5093465;28;20017;-73
2021/08/24 02:01:47;;;;;;;5.85;2.67;;;538.00;2048.00;;;;;;5093452;28;20028;-73
2021/08/24 02:04:21;;;;;;;3.35;2.35;;;538.00;2022.40;;;;;;5093726;28;20012;-74
2021/08/24 02:06:48;;;;;;;4.85;2.47;;;538.00;2073.60;;;;;;5093423;28;20024;-74
2021/08/24 02:09:20;;;;;;;3.30;2.53;;;537.90;2048.00;;;;;;5093376;28;20101;-74
2021/08/24 02:11:49;;;;;;;5.53;2.95;;;538.00;2048.00;;;;;;5093554;28;20032;-73
2021/08/24 02:14:15;;;;;;;3.28;2.88;;;538.10;2048.00;;;;;;5093082;28;20036;-73
2021/08/24 02:16:44;;;;;;;3.35;2.53;;;538.10;2048.00;;;;;;5092032;28;20052;-73
2021/08/24 02:19:30;;;;;;;5.70;3.17;;;538.10;2048.00;;;;;;5093209;28;20374;-73
2021/08/24 02:22:08;;;;;;;3.78;2.75;;;538.10;2048.00;;;;;;5093583;28;20499;-73
2021/08/24 02:24:42;;;;;;;4.00;2.70;;;538.10;2048.00;;;;;;5093299;28;20020;-74
2021/08/24 02:27:16;;;;;;;5.40;2.90;;;538.10;2048.00;;;;;;5093532;28;20027;-73
2021/08/24 02:29:42;;;;;;;6.38;2.95;;;538.10;2048.00;;;;;;5093469;28;20095;-74
2021/08/24 02:32:15;;;;;;;3.83;3.00;;;538.10;2048.00;;;;;;5093079;28;20085;-73
2021/08/24 02:34:52;;;;;;;3.75;2.67;;;538.10;2022.40;;;;;;5091880;28;20073;-72
2021/08/24 02:37:56;;;;;;;3.72;3.03;;;538.10;2048.00;;;;;;5093139;28;20027;-73
2021/08/24 02:40:31;;;;;;;6.22;3.47;;;538.00;2048.00;;;;;;5093098;28;20469;-74
2021/08/24 02:43:32;;;;;;;9.07;3.08;;;538.00;2048.00;;;;;;5093362;28;20169;-73
2021/08/24 02:46:25;;;;;;;3.95;3.40;;;537.90;2073.60;;;;;;5091772;28;20544;-73
2021/08/24 02:48:59;;;;;;;5.03;3.50;;;538.00;2048.00;;;;;;5084660;28;20110;-74
2021/08/24 02:51:27;;;;;;;5.28;3.70;;;537.90;2073.60;;;;;;5092947;28;20036;-74
2021/08/24 02:54:06;;;;;;;4.72;3.17;;;537.90;2073.60;;;;;;5096078;28;20408;-72
2021/08/24 02:56:32;;;;;;;6.78;3.25;;;537.90;2073.60;;;;;;5096708;28;20032;-74
2021/08/24 02:58:57;;;;;;;4.63;3.08;;;538.00;2073.60;;;;;;5096602;28;20020;-73
2021/08/24 03:01:23;;;;;;;4.15;3.58;;;538.10;2048.00;;;;;;5096596;28;20084;-73
2021/08/24 03:03:50;;;;;;;4.63;3.33;;;538.10;2048.00;;;;;;5096483;28;20027;-74
2021/08/24 03:06:15;;;;;;;5.28;3.78;;;537.70;2048.00;;;;;;5096520;28;20024;-73
2021/08/24 03:08:42;;;;;;;5.82;3.33;;;537.90;2073.60;;;;;;5096517;28;20472;-73
2021/08/24 03:11:10;;;;;;;4.45;3.10;;;537.90;2073.60;;;;;;5095074;28;20043;-72
2021/08/24 03:14:05;;;;;;;5.50;3.72;;;537.80;2073.60;;;;;;5096660;28;20035;-73
2021/08/24 03:16:48;;;;;;;3.78;2.88;;;537.80;2073.60;;;;;;5094431;28;20070;-73
2021/08/24 03:19:20;;;;;;;6.53;3.42;;;537.80;2073.60;;;;;;5096289;28;20035;-73
2021/08/24 03:21:47;;;;;;;4.47;3.22;;;537.80;2073.60;;;;;;5096071;28;20052;-73
2021/08/24 03:24:15;;;;;;;4.18;2.80;;;537.90;2073.60;;;;;;5096363;28;20030;-72
2021/08/24 03:26:43;;;;;;;4.70;3.38;;;537.90;2073.60;;;;;;5096044;28;20113;-73
2021/08/24 03:29:13;;;;;;;4.65;3.35;;;537.90;2048.00;;;;;;5096030;28;20209;-74
2021/08/24 03:31:40;;;;;;;5.00;3.03;;;537.90;2048.00;;;;;;5095918;28;20024;-73
2021/08/24 03:34:07;;;;;;;4.20;2.90;;;537.80;2048.00;;;;;;5094603;28;20369;-72
2021/08/24 03:36:33;;;;;;;4.95;3.47;;;537.80;2048.00;;;;;;5095892;28;20537;-74
2021/08/24 03:38:59;;;;;;;3.92;3.25;;;537.90;2073.60;;;;;;5095831;28;20098;-73
2021/08/24 03:41:26;;;;;;;4.22;3.08;;;537.90;2048.00;;;;;;5095804;28;20032;-73
2021/08/24 03:43:52;;;;;;;3.45;2.80;;;537.90;2048.00;;;;;;5095695;28;20031;-73
2021/08/24 03:46:18;;;;;;;5.55;3.30;;;537.90;2048.00;;;;;;5095752;28;20028;-74
2021/08/24 03:48:44;;;;;;;4.80;3.28;;;537.90;2048.00;;;;;;5094321;28;20384;-73
2021/08/24 03:51:10;;;;;;;4.28;3.42;;;537.70;2048.00;;;;;;5095499;28;20028;-74
2021/08/24 03:53:36;;;;;;;4.80;3.40;;;537.70;2073.60;;;;;;5095550;28;20554;-73
2021/08/24 03:56:06;;;;;;;6.38;3.05;;;537.60;2099.20;;;;;;5095647;28;20029;-73
2021/08/24 03:58:32;;;;;;;4.85;3.22;;;537.60;2099.20;;;;;;5094187;28;20118;-73
2021/08/24 04:00:58;;;;;;;4.00;3.30;;;537.60;2099.20;;;;;;5095348;28;20492;-73
2021/08/24 04:03:24;;;;;;;4.22;3.55;;;537.60;2099.20;;;;;;5095073;28;20024;-73
2021/08/24 04:05:58;;;;;;;3.78;3.15;;;537.60;2099.20;;;;;;5094772;28;20032;-74
2021/08/24 04:08:23;;;;;;;9.88;3.45;;;537.60;2099.20;;;;;;5094027;28;20020;-73
2021/08/24 04:10:49;;;;;;;3.88;3.38;;;512.90;2073.60;;;;;;5095224;28;20032;-74
2021/08/24 04:13:15;;;;;;;5.63;3.70;;;537.60;2099.20;;;;;;5095644;28;20020;-74
2021/08/24 04:15:41;;;;;;;4.82;3.70;;;537.60;2099.20;;;;;;5093616;28;20048;-73
2021/08/24 04:18:07;;;;;;;5.13;3.47;;;537.60;2099.20;;;;;;5095055;28;20077;-73
2021/08/24 04:20:33;;;;;;;4.40;3.60;;;537.70;2073.60;;;;;;5095038;28;20061;-73
2021/08/24 04:22:59;;;;;;;4.97;3.55;;;537.70;2099.20;;;;;;5094958;28;20529;-73
2021/08/24 04:25:25;;;;;;;4.82;3.30;;;537.70;2099.20;;;;;;5094899;28;20098;-73
2021/08/24 04:27:51;;;;;;;7.40;3.92;;;537.70;2099.20;;;;;;5094846;28;20020;-74
2021/08/24 04:30:17;;;;;;;4.15;3.70;;;537.80;2099.20;;;;;;5094446;28;20411;-73
2021/08/24 04:32:45;;;;;;;4.13;3.45;;;537.80;2099.20;;;;;;5094770;28;20020;-73
2021/08/24 04:35:13;;;;;;;3.95;2.92;;;537.80;2099.20;;;;;;5094756;28;20042;-74
2021/08/24 04:37:39;;;;;;;6.72;4.05;;;537.90;2099.20;;;;;;5094512;28;20024;-73
2021/08/24 04:40:06;;;;;;;5.15;3.53;;;537.80;2099.20;;;;;;5094518;28;20490;-73
2021/08/24 04:42:33;;;;;;;6.65;3.97;;;537.80;2099.20;;;;;;5094446;28;20027;-73
2021/08/24 04:44:59;;;;;;;4.35;3.80;;;537.70;2099.20;;;;;;5094407;28;20025;-74
2021/08/24 04:47:25;;;;;;;8.00;3.70;;;537.80;2099.20;;;;;;5094377;28;20024;-73
2021/08/24 04:49:51;;;;;;;4.28;3.45;;;537.70;2073.60;;;;;;5094244;28;20028;-74
2021/08/24 04:52:17;;;;;;;5.90;3.55;;;537.70;2099.20;;;;;;5094227;28;20032;-74
2021/08/24 04:54:43;;;;;;;5.90;4.15;;;537.70;2099.20;;;;;;5094402;28;20059;-74
2021/08/24 04:57:09;;;;;;;5.25;3.58;;;537.70;2099.20;;;;;;5094312;28;20484;-73
2021/08/24 04:59:35;;;;;;;4.72;4.00;;;537.70;2099.20;;;;;;5094257;28;20047;-73
2021/08/24 05:02:01;;;;;;;5.22;3.92;;;537.70;2099.20;;;;;;5094262;28;20062;-73
2021/08/24 05:04:27;;;;;;;5.43;4.10;;;537.70;2099.20;;;;;;5092894;28;20031;-73
2021/08/24 05:06:53;;;;;;;5.47;3.72;;;537.60;2099.20;;;;;;5094130;28;20024;-74
2021/08/24 05:09:19;;;;;;;5.05;3.90;;;537.60;2099.20;;;;;;5094138;28;20016;-73
2021/08/24 05:11:46;;;;;;;4.80;4.18;;;537.60;2099.20;;;;;;5093981;28;20107;-73
2021/08/24 05:14:12;;;;;;;5.40;4.05;;;512.90;2099.20;;;;;;5093774;28;20493;-73
2021/08/24 05:16:38;;;;;;;5.40;4.10;;;537.60;2099.20;;;;;;5093899;28;20070;-74
2021/08/24 05:19:05;;;;;;;6.15;4.05;;;537.60;2099.20;;;;;;5093864;28;20021;-74
2021/08/24 05:21:33;;;;;;;5.75;4.10;;;537.70;2099.20;;;;;;5093797;28;20028;-73
2021/08/24 05:23:59;;;;;;;5.38;3.95;;;537.70;2099.20;;;;;;5093946;28;20027;-74
2021/08/24 05:26:25;;;;;;;6.40;4.10;;;537.70;2124.80;;;;;;5093837;28;20032;-73
2021/08/24 05:28:50;;;;;;;8.38;4.45;;;537.70;2099.20;;;;;;5093769;28;20030;-73
2021/08/24 05:31:16;;;;;;;6.28;4.65;;;537.80;2099.20;;;;;;5093970;28;20028;-73
2021/08/24 05:33:43;;;;;;;7.75;4.43;;;537.80;2099.20;;;;;;5093879;28;20070;-72
2021/08/24 05:36:11;;;;;;;7.47;4.55;;;537.80;2124.80;;;;;;5093728;28;20033;-73
2021/08/24 05:38:37;;;;;;;7.88;4.70;;;537.70;2099.20;;;;;;5093700;28;20020;-72
2021/08/24 05:41:04;;;;;;;7.53;4.30;;;537.80;2099.20;;;;;;5093651;28;20024;-74
2021/08/24 05:43:31;;;;;;;7.53;4.20;;;537.80;2099.20;;;;;;5093619;28;20024;-72
2021/08/24 05:46:06;;;;;;;5.47;4.40;;;537.80;2099.20;;;;;;5093612;28;20052;-73
2021/08/24 05:48:33;;;;;;;7.78;4.03;;;537.80;2099.20;;;;;;5092270;28;20357;-72
2021/08/24 05:50:59;;;;;;;9.55;4.80;;;537.80;2099.20;;;;;;5093533;28;20039;-73
2021/08/24 05:53:26;;;;;;;5.50;4.38;;;537.80;2099.20;;;;;;5092274;28;20111;-73
2021/08/24 05:55:52;;;;;;;6.05;4.50;;;537.70;2099.20;;;;;;5093810;28;20414;-73
2021/08/24 05:58:18;;;;;;;6.25;4.63;;;537.70;2124.80;;;;;;5093495;28;20073;-73
2021/08/24 06:00:44;;;;;;;6.05;4.63;;;537.70;2124.80;;;;;;5093468;28;20024;-73
2021/08/24 06:03:10;;;;;;;5.80;4.70;;;537.80;2099.20;;;;;;5093449;28;20054;-72
2021/08/24 06:05:40;;;;;;;8.10;5.18;;;537.80;2124.80;;;;;;5093388;28;20027;-73
2021/08/24 06:08:07;;;;;;;6.78;4.60;;;537.70;2124.80;;;;;;5093413;28;20047;-74
2021/08/24 06:10:40;;;;;;;8.27;5.00;;;537.60;2124.80;;;;;;5093883;28;20032;-73
2021/08/24 06:13:07;;;;;;;6.50;5.22;;;537.60;2124.80;;;;;;5093394;28;20024;-73
2021/08/24 06:15:34;;;;;;;7.00;5.10;;;537.60;2124.80;;;;;;5093068;28;20048;-73
2021/08/24 06:18:01;;;;;;;6.43;5.38;;;537.70;2124.80;;;;;;5093217;28;20473;-74
2021/08/24 06:20:27;;;;;;;8.07;5.18;;;537.60;2124.80;;;;;;5093262;28;20024;-73
2021/08/24 06:22:53;;;;;;;7.15;5.88;;;537.60;2099.20;;;;;;5093155;28;20017;-73
2021/08/24 06:25:20;;;;;;;6.03;4.80;;;537.70;2124.80;;;;;;5093204;28;20020;-74
2021/08/24 06:27:46;;;;;;;6.15;4.70;;;537.70;2099.20;;;;;;5093455;28;20024;-73
2021/08/24 06:30:13;;;;;;;10.73;5.63;;;537.70;2124.80;;;;;;5097378;28;20533;-73
2021/08/24 06:32:52;;;;;;;6.93;5.50;;;537.70;2124.80;;;;;;5097180;28;20472;-73
2021/08/24 06:35:21;;;;;;;5.88;5.20;;;537.70;2124.80;;;;;;5097276;28;20032;-73
2021/08/24 06:37:47;;;;;;;8.90;5.47;;;537.60;2099.20;;;;;;5097020;28;20050;-73
2021/08/24 06:40:15;;;;;;;6.20;5.40;;;537.60;2124.80;;;;;;5097066;28;20059;-73
2021/08/24 06:42:48;;;;;;;8.02;6.07;;;537.60;2124.80;;;;;;5096979;28;20028;-72
2021/08/24 06:45:21;;;;;;;9.43;5.60;;;537.70;2099.20;;;;;;5097278;28;20079;-73
2021/08/24 06:47:47;;;;;;;6.20;5.20;;;537.80;2099.20;;;;;;5096891;28;20063;-72
2021/08/24 06:50:13;;;;;;;6.43;5.47;;;537.70;2099.20;;;;;;5096708;28;20552;-73
2021/08/24 06:52:39;;;;;;;7.25;5.60;;;537.80;2099.20;;;;;;5096540;28;20115;-73
2021/08/24 06:55:08;;;;;;;7.57;5.72;;;537.70;2124.80;;;;;;5096526;28;20051;-72
2021/08/24 06:57:35;;;;;;;8.00;5.40;;;537.60;2124.80;;;;;;5096620;28;20054;-73
2021/08/24 07:00:01;;;;;;;8.35;6.57;;;537.60;2124.80;;;;;;5096604;28;20031;-72
2021/08/24 07:02:27;;;;;;;8.05;6.47;;;537.60;2124.80;;;;;;5096581;28;20024;-73
2021/08/24 07:04:53;;;;;;;9.52;6.28;;;537.60;2124.80;;;;;;5096156;28;20384;-73
2021/08/24 07:07:19;;;;;;;9.75;6.07;;;537.60;2124.80;;;;;;5096462;28;20142;-73
2021/08/24 07:09:44;;;;;;;9.18;6.28;;;537.70;2099.20;;;;;;5096431;28;20077;-73
2021/08/24 07:12:10;;;;;;;9.10;7.43;;;537.80;2099.20;;;;;;5096288;28;20111;-73
2021/08/24 07:14:37;;;;;;;10.73;6.85;;;538.00;2073.60;;;;;;5094862;28;20047;-73
2021/08/24 07:17:03;;;;;;;7.45;5.97;;;538.10;2099.20;;;;;;5096269;28;20046;-73
2021/08/24 07:19:30;;;;;;;10.48;5.68;;;538.10;2073.60;;;;;;5096259;28;20016;-73
2021/08/24 07:21:56;;;;;;;6.35;5.22;;;538.10;2073.60;;;;;;5095830;28;20024;-72
2021/08/24 07:24:21;;;;;;;10.73;6.40;;;538.20;2048.00;;;;;;5096119;28;20020;-73
2021/08/24 07:26:49;;;;;;;9.73;6.20;;;538.20;2073.60;;;;;;5096352;28;20024;-73
2021/08/24 07:29:15;;;;;;;10.77;6.65;;;538.10;2073.60;;;;;;5094776;28;20366;-73
2021/08/24 07:31:41;;;;;;;11.05;6.78;;;538.00;2099.20;;;;;;5096270;28;20089;-72
2021/08/24 07:34:09;;;;;;;8.43;6.90;;;537.90;2099.20;;;;;;5095911;28;20012;-73
2021/08/24 07:36:35;;;;;;;9.90;6.32;;;538.00;2073.60;;;;;;5095950;28;20024;-73
2021/08/24 07:39:03;;;;;;;6.93;6.20;;;538.10;2073.60;;;;;;5094647;28;20489;-73
2021/08/24 07:41:29;;;;;;;10.23;6.53;;;538.10;2073.60;;;;;;5094529;28;20036;-72
2021/08/24 07:43:55;;;;;;;7.00;6.15;;;538.10;2048.00;;;;;;5095724;28;20028;-73
2021/08/24 07:46:21;;;;;;;6.70;5.75;;;538.10;2048.00;;;;;;5095643;28;20373;-73
2021/08/24 07:48:47;;;;;;;11.23;6.20;;;538.10;2073.60;;;;;;5095706;28;20016;-72
2021/08/24 07:51:13;;;;;;;7.25;6.50;;;538.10;2048.00;;;;;;5094847;28;20042;-73
2021/08/24 07:53:39;;;;;;;9.25;7.15;;;538.20;2048.00;;;;;;5095091;28;20012;-73
2021/08/24 07:56:06;;;;;;;9.35;6.88;;;538.20;2048.00;;;;;;5095027;28;20473;-72
2021/08/24 07:58:32;;;;;;;7.25;6.20;;;538.20;2073.60;;;;;;5094836;28;20048;-73
2021/08/24 08:00:59;;;;;;;9.63;6.60;;;538.30;2073.60;;;;;;5094778;28;20534;-73
2021/08/24 08:03:24;;;;;;;8.85;5.72;;;538.30;2048.00;;;;;;5095155;28;20105;-73
2021/08/24 08:05:50;;;;;;;9.00;6.55;;;538.40;2048.00;;;;;;5094932;28;20530;-73
2021/08/24 08:08:16;;;;;;;12.10;6.75;;;538.50;2048.00;;;;;;5094640;28;20017;-73
2021/08/24 08:10:42;;;;;;;8.57;5.50;;;538.50;2048.00;;;;;;5094523;28;20545;-73
2021/08/24 08:13:08;;;;;;;7.38;5.75;;;538.50;2048.00;;;;;;5094593;28;20020;-73
2021/08/24 08:15:36;;;;;;;7.38;6.03;;;563.20;2073.60;;;;;;5094718;28;20080;-73
2021/08/24 08:18:04;;;;;;;8.90;6.03;;;563.20;2073.60;;;;;;5094971;28;20473;-73
2021/08/24 08:20:32;;;;;;;6.85;5.53;;;563.30;2073.60;;;;;;5095125;28;20024;-72
2021/08/24 08:22:58;;;;;;;7.43;5.75;;;563.40;2048.00;;;;;;5094903;28;20028;-73
2021/08/24 08:25:24;;;;;;;10.82;5.95;;;563.40;2048.00;;;;;;5094857;28;20476;-72
2021/08/24 08:27:50;;;;;;;8.05;5.60;;;563.40;2048.00;;;;;;5095042;28;20028;-73
2021/08/24 08:30:16;;;;;;;8.63;5.10;;;563.40;2048.00;;;;;;5094924;28;20027;-72
2021/08/24 08:32:43;;;;;;;6.85;5.18;;;563.40;2048.00;;;;;;5094873;28;20158;-73
2021/08/24 08:35:12;;;;;;;5.85;5.22;;;563.40;2022.40;;;;;;5094942;28;20099;-73
2021/08/24 08:37:38;;;;;;;6.00;4.80;;;563.40;2022.40;;;;;;5093958;28;20038;-73
2021/08/24 08:40:05;;;;;;;6.28;5.13;;;563.30;2048.00;;;;;;5094546;28;20111;-73
2021/08/24 08:43:02;;;;;;;7.65;5.03;;;563.40;2022.40;;;;;;5093803;28;20473;-73
2021/08/24 08:45:39;;;;;;;6.93;5.78;;;563.40;2022.40;;;;;;5093756;28;20024;-73
2021/08/24 08:48:30;;;;;;;14.98;6.00;;;563.40;2022.40;;;;;;5094319;28;20028;-72
2021/08/24 08:51:19;;;;;;;6.78;5.68;;;563.40;2022.40;;;;;;5092724;28;20036;-74
2021/08/24 08:53:54;;;;;;;9.02;6.15;;;563.40;2022.40;;;;;;5092774;28;20080;-74
2021/08/24 08:56:44;;;;;;;7.15;6.03;;;563.40;2048.00;;;;;;5093764;28;20114;-74
2021/08/24 08:59:18;;;;;;;5.45;4.90;;;563.40;2022.40;;;;;;5099687;28;20020;-73
2021/08/24 09:02:20;;;;;;;5.80;5.07;;;563.40;2022.40;;;;;;5093815;28;20019;-73
2021/08/24 09:04:47;;;;;;;10.23;4.88;;;563.50;1996.80;;;;;;5093711;28;20427;-77
2021/08/24 09:07:22;;;;;;;7.70;4.80;;;563.70;2022.40;;;;;;5092545;28;20016;-74
2021/08/24 09:09:48;;;;;;;8.68;5.57;;;563.50;2022.40;;;;;;5091915;28;20053;-72
2021/08/24 09:12:14;;;;;;;6.50;5.30;;;563.50;1996.80;;;;;;5093593;28;20431;-72
2021/08/24 09:14:52;;;;;;;5.78;4.85;;;563.60;2022.40;;;;;;5093311;28;20043;-72
2021/08/24 09:17:32;;;;;;;6.57;4.72;;;563.60;1996.80;;;;;;5092268;28;20084;-72
2021/08/24 09:20:08;;;;;;;6.32;4.80;;;563.60;1996.80;;;;;;5093439;28;20017;-72
2021/08/24 09:22:35;;;;;;;7.75;5.13;;;563.60;1971.20;;;;;;5093465;28;20020;-75
2021/08/24 09:25:03;;;;;;;5.25;4.40;;;563.70;1996.80;;;;;;5090709;28;20016;-73
2021/08/24 09:27:50;;;;;;;5.95;4.65;;;563.70;1945.60;;;;;;5092110;28;20396;-74
2021/08/24 09:30:17;;;;;;;8.48;4.95;;;563.80;1971.20;;;;;;5092599;28;20475;-73
2021/08/24 09:32:43;;;;;;;8.50;5.45;;;563.80;1971.20;;;;;;5092856;28;20027;-72
2021/08/24 09:35:15;;;;;;;6.30;5.10;;;563.80;1971.20;;;;;;5093273;28;20583;-74
2021/08/24 09:37:42;;;;;;;5.05;4.43;;;563.90;1971.20;;;;;;5093202;28;20024;-74
2021/08/24 09:40:10;;;;;;;8.02;5.55;;;563.90;1945.60;;;;;;5093484;28;20016;-74
2021/08/24 09:42:43;;;;;;;6.70;6.00;;;563.90;1971.20;;;;;;5093631;28;20027;-74
2021/08/24 09:45:29;;;;;;;9.05;5.97;;;563.80;1996.80;;;;;;5093921;28;20075;-74
2021/08/24 09:47:58;;;;;;;7.70;5.28;;;563.70;1971.20;;;;;;5093699;28;20032;-73
2021/08/24 09:50:38;;;;;;;10.65;6.18;;;563.90;1971.20;;;;;;5093507;28;20017;-74
2021/08/24 09:53:08;;;;;;;6.82;5.97;;;564.00;1996.80;;;;;;5093644;28;20020;-74
2021/08/24 09:55:44;;;;;;;8.48;5.75;;;564.00;1945.60;;;;;;5092179;28;20035;-74
2021/08/24 09:58:29;;;;;;;6.55;5.22;;;564.00;1996.80;;;;;;5093946;28;20511;-74
2021/08/24 10:00:56;;;;;;;8.82;6.05;;;564.10;1971.20;;;;;;5093720;28;20035;-74
2021/08/24 10:03:38;;;;;;;7.53;6.00;;;564.10;1971.20;;;;;;5096019;28;20027;-74
2021/08/24 10:06:07;;;;;;;8.47;6.10;;;588.80;1996.80;;;;;;5097514;28;20103;-74
2021/08/24 10:08:36;;;;;;;6.65;5.05;;;588.80;1971.20;;;;;;5096248;28;20016;-76
2021/08/24 10:11:14;;;;;;;6.32;5.38;;;588.80;1996.80;;;;;;5089246;28;20036;-74
2021/08/24 10:13:43;;;;;;;7.78;5.65;;;588.80;1945.60;;;;;;5077157;28;20086;-73
2021/08/24 10:16:11;;;;;;;6.45;4.90;;;588.80;1971.20;;;;;;5088755;28;20044;-74
2021/08/24 10:18:40;;;;;;;10.00;4.72;;;588.90;1971.20;;;;;;5096476;28;20099;-74
2021/08/24 10:21:12;;;;;;;7.13;4.78;;;589.00;1971.20;;;;;;5096773;28;20016;-76
2021/08/24 10:23:48;;;;;;;6.10;5.30;;;589.00;1971.20;;;;;;5096866;28;20491;-74
2021/08/24 10:26:26;;;;;;;7.10;5.40;;;589.00;1945.60;;;;;;5096730;28;20097;-74
2021/08/24 10:28:55;;;;;;;5.75;4.80;;;589.10;1945.60;;;;;;5096843;28;20142;-74
2021/08/24 10:31:41;;;;;;;7.65;5.53;;;589.10;1920.00;;;;;;5094278;28;20400;-73
2021/08/24 10:34:25;;;;;;;5.53;4.97;;;589.20;1945.60;;;;;;5095845;28;20449;-75
2021/08/24 10:36:53;;;;;;;8.23;4.40;;;589.20;1945.60;;;;;;5096709;28;20064;-74
2021/08/24 10:39:21;;;;;;;5.40;4.30;;;589.30;1920.00;;;;;;5097488;28;20020;-74
2021/08/24 10:42:06;;;;;;;5.72;4.82;;;589.40;1945.60;;;;;;5096908;28;20032;-74
2021/08/24 10:45:24;;;;;;;7.15;4.60;;;589.40;1945.60;;;;;;5095502;28;20028;-74
2021/08/24 10:47:57;;;;;;;7.05;5.07;;;589.40;1920.00;;;;;;5091964;28;20062;-74
2021/08/24 10:50:25;;;;;;;;;;;589.40;1894.40;;;;;;5095120;28;20373;-74
2021/08/24 10:53:12;;;;;;;10.45;4.78;;;589.30;1894.40;;;;;;5096319;28;19916;-78
2021/08/24 10:55:48;;;;;;;5.00;4.43;;;589.30;1920.00;;;;;;5092544;28;20024;-79
2021/08/24 10:58:58;;;;;;;5.43;4.10;;;589.40;1894.40;;;;;;5096192;28;20377;-73
2021/08/24 11:01:32;;;;;;;8.40;4.35;;;589.40;1894.40;;;;;;5079210;28;20028;-75
2021/08/24 11:04:26;;;;;;;5.38;4.07;;;589.50;1920.00;;;;;;5093258;28;20434;-75
2021/08/24 11:07:20;;;;;;;6.13;3.58;;;589.60;1920.00;;;;;;5095473;28;20030;-73
2021/08/24 11:09:58;;;;;;;;;;;589.70;1920.00;;;;;;5093653;28;20047;-72
2021/08/24 11:12:55;;;;;;;7.35;4.13;;;589.70;1868.80;;;;;;5094030;28;19912;-73
2021/08/24 11:15:43;;;;;;;6.72;3.67;;;589.70;1894.40;;;;;;5093527;28;20503;-74
2021/08/24 11:18:33;;;;;;;5.03;4.10;;;614.40;1868.80;;;;;;5094806;28;20012;-78
2021/08/24 11:21:48;;;;;;;6.05;4.25;;;614.50;1868.80;;;;;;5093334;28;20024;-73
2021/08/24 11:24:36;;;;;;;5.28;3.35;;;614.40;1843.20;;;;;;5089529;28;20112;-72
2021/08/24 11:27:10;;;;;;;8.05;4.00;;;614.50;1843.20;;;;;;5093977;28;20020;-72
2021/08/24 11:29:47;;;;;;;8.30;4.00;;;614.50;1868.80;;;;;;5096134;28;20024;-73
2021/08/24 11:32:31;;;;;;;5.32;3.72;;;614.50;1843.20;;;;;;5096143;28;20063;-77
2021/08/24 11:35:01;;;;;;;4.05;3.50;;;614.50;1843.20;;;;;;5096359;28;20409;-73
2021/08/24 11:38:05;;;;;;;4.25;3.58;;;614.50;1868.80;;;;;;5095903;28;20307;-72
2021/08/24 11:41:04;;;;;;;5.43;3.60;;;614.50;1843.20;;;;;;5014357;28;20022;-73
2021/08/24 11:44:01;;;;;;;5.38;3.22;;;614.60;1868.80;;;;;;5013785;28;20034;-73
2021/08/24 11:46:54;;;;;;;4.93;3.20;;;614.60;1894.40;;;;;;5013193;28;20041;-72
2021/08/24 11:49:25;;;;;;;5.57;4.22;;;614.60;1868.80;;;;;;4996827;28;20026;-72
2021/08/24 11:52:03;;;;;;;4.35;3.47;;;614.60;1894.40;;;;;;5013476;28;20490;-73
2021/08/24 11:54:37;;;;;;;6.18;3.60;;;614.60;1894.40;;;;;;4997199;28;20076;-72
2021/08/24 11:57:19;;;;;;;3.97;3.33;;;614.70;1817.60;;;;;;5013176;28;20030;-73
2021/08/24 11:59:48;;;;;;;7.43;3.22;;;614.60;1843.20;;;;;;5013480;28;20030;-73
2021/08/24 12:02:22;;;;;;;10.88;3.40;;;614.70;1868.80;;;;;;4996727;28;20542;-75
2021/08/24 12:04:48;;;;;;;4.70;3.25;;;614.70;1843.20;;;;;;5013218;28;20560;-73
2021/08/24 12:07:36;;;;;;;3.55;3.15;;;614.70;1868.80;;;;;;5012989;28;20042;-72
2021/08/24 12:10:30;;;;;;;4.50;3.05;;;614.70;1868.80;;;;;;4996712;28;20735;-71
2021/08/24 12:13:04;;;;;;;5.75;3.10;;;614.80;1843.20;;;;;;5013271;28;20454;-74
2021/08/24 12:15:37;;;;;;;5.10;2.60;;;614.80;1843.20;;;;;;5087939;28;20051;-72
2021/08/24 12:18:06;;;;;;;;;;;614.80;1766.40;;;;;;5095296;28;20024;-73
2021/08/24 12:20:35;;;;;;;6.15;2.38;;;614.80;1766.40;;;;;;5095023;28;19930;-73
2021/08/24 12:23:03;;;;;;;3.58;2.58;;;614.80;1792.00;;;;;;5094839;28;20116;-73
2021/08/24 12:25:34;;;;;;;4.35;2.22;;;614.80;1766.40;;;;;;5094128;28;20422;-72
2021/08/24 12:28:02;;;;;;;6.53;2.40;;;614.80;1740.80;;;;;;5094841;28;20023;-72
2021/08/24 12:30:36;;;;;;;4.22;2.08;;;614.80;1740.80;;;;;;5094652;28;20024;-76
2021/08/24 12:33:10;;;;;;;7.18;2.08;;;614.80;1715.20;;;;;;5094523;28;20020;-72
2021/08/24 12:35:41;;;;;;;6.13;2.35;;;614.90;1740.80;;;;;;5094681;28;20028;-74
2021/08/24 12:38:31;;;;;;;14.27;3.22;;;615.00;1715.20;;;;;;5093230;28;20123;-77
2021/08/24 12:40:57;;;;;;;4.25;2.00;;;614.90;1689.60;;;;;;5094399;28;20016;-72
2021/08/24 12:43:48;;;;;;;3.03;2.30;;;615.00;1715.20;;;;;;5093158;28;20034;-74